Time;durP1;ratioP1;P1;durP2;ratioP2;P2;SDS_P1;SDS_P2;PMS_P1;PMS_P2;Temp;Humidity;BMP_temperature;BMP_pressure;BME280_temperature;BME280_humidity;BME280_pressure;Samples;Min_cycle;Max_cycle;Signal;HPM_P1;HPM_P2
2021/11/15 00:01:30;;;;;;;;;;;;;;;1.50;95.64;101226.10;1749334;82;21216;-76
2021/11/15 00:04:35;;;;;;;53.10;23.15;;;;;;;1.42;95.38;101227.09;1721241;83;20217;-77
2021/11/15 00:07:42;;;;;;;44.18;21.75;;;;;;;1.31;95.45;101223.69;1720106;83;21255;-76
2021/11/15 00:10:47;;;;;;;49.70;24.23;;;;;;;1.25;95.68;101220.03;1737669;82;21917;-76
2021/11/15 00:13:54;;;;;;;43.78;23.73;;;;;;;1.17;95.68;101225.02;1721506;83;21191;-76
2021/11/15 00:16:59;;;;;;;42.85;23.00;;;;;;;1.11;95.88;101226.74;1747115;81;21235;-75
2021/11/15 00:20:04;;;;;;;44.40;22.95;;;;;;;1.10;96.30;101221.84;1769194;81;21168;-76
2021/11/15 00:23:11;;;;;;;50.30;24.12;;;;;;;1.11;96.53;101236.17;1769606;81;21955;-76
2021/11/15 00:26:18;;;;;;;46.68;24.35;;;;;;;1.12;96.62;101232.03;1769461;81;21329;-76
2021/11/15 00:29:24;;;;;;;50.10;23.40;;;;;;;1.10;96.47;101227.23;1770883;81;21152;-76
2021/11/15 00:32:31;;;;;;;53.02;23.75;;;;;;;1.05;96.13;101225.78;1769276;81;21254;-77
2021/11/15 00:35:36;;;;;;;54.00;25.35;;;;;;;1.02;96.10;101216.04;1771111;81;21239;-76
2021/11/15 00:38:42;;;;;;;48.42;24.82;;;;;;;1.00;96.21;101219.32;1733389;82;21299;-76
2021/11/15 00:41:48;;;;;;;56.05;25.05;;;;;;;0.99;96.11;101212.20;1751700;82;21200;-76
2021/11/15 00:44:54;;;;;;;51.80;25.23;;;;;;;0.93;95.84;101229.58;1725835;83;21577;-76
2021/11/15 00:48:00;;;;;;;44.50;23.22;;;;;;;0.89;95.80;101224.47;1762338;81;21563;-76
2021/11/15 00:51:06;;;;;;;44.33;22.05;;;;;;;0.88;95.97;101220.91;1756513;81;21315;-76
2021/11/15 00:54:11;;;;;;;36.28;21.05;;;;;;;0.85;95.87;101229.65;1723691;83;21230;-76
2021/11/15 00:57:17;;;;;;;50.85;24.05;;;;;;;0.76;95.76;101217.14;1759214;81;21302;-76
2021/11/15 01:00:26;;;;;;;53.65;24.70;;;;;;;0.68;95.59;101214.03;1759715;81;21314;-76
2021/11/15 01:03:32;;;;;;;67.85;28.20;;;;;;;0.63;95.72;101209.88;1758989;81;21349;-77
2021/11/15 01:06:37;;;;;;;55.12;26.35;;;;;;;0.60;95.95;101214.95;1759769;81;21176;-76
2021/11/15 01:09:43;;;;;;;54.23;25.23;;;;;;;0.62;96.22;101210.84;1758705;81;21195;-76
2021/11/15 01:12:49;;;;;;;49.33;25.77;;;;;;;0.65;96.39;101211.51;1758460;81;21326;-76
2021/11/15 01:15:55;;;;;;;54.93;26.10;;;;;;;0.67;96.37;101203.36;1759751;81;21953;-76
2021/11/15 01:19:00;;;;;;;58.60;26.52;;;;;;;0.66;96.32;101193.07;1759729;81;21727;-76
2021/11/15 01:22:05;;;;;;;50.35;26.05;;;;;;;0.68;96.41;101192.97;1759727;81;21291;-76
2021/11/15 01:25:11;;;;;;;72.17;28.80;;;;;;;0.69;96.34;101196.91;1759776;81;21294;-76
2021/11/15 01:28:17;;;;;;;55.30;26.62;;;;;;;0.76;96.45;101186.17;1759557;81;21299;-77
2021/11/15 01:31:22;;;;;;;61.48;28.05;;;;;;;0.82;96.32;101182.72;1759268;81;21255;-77
2021/11/15 01:34:29;;;;;;;57.27;26.35;;;;;;;0.86;96.04;101191.00;1758589;81;21884;-76
2021/11/15 01:37:34;;;;;;;56.88;28.00;;;;;;;0.87;95.86;101184.65;1759788;81;21200;-76
2021/11/15 01:40:39;;;;;;;53.87;26.10;;;;;;;0.86;95.55;101186.48;1759630;81;21617;-76
2021/11/15 01:43:45;;;;;;;54.67;25.88;;;;;;;0.81;95.26;101183.20;1759082;81;21261;-76
2021/11/15 01:46:51;;;;;;;45.90;22.73;;;;;;;0.70;95.00;101177.58;1757846;80;21357;-76
2021/11/15 01:49:57;;;;;;;44.98;22.95;;;;;;;0.66;95.23;101174.22;1746425;82;21188;-76
2021/11/15 01:53:03;;;;;;;59.23;25.27;;;;;;;0.63;95.32;101174.88;1746027;82;21345;-77
2021/11/15 01:56:09;;;;;;;58.38;26.17;;;;;;;0.62;95.44;101177.19;1746131;82;21887;-76
2021/11/15 01:59:14;;;;;;;62.00;28.70;;;;;;;0.62;95.52;101187.48;1746556;82;21885;-76
2021/11/15 02:02:20;;;;;;;55.15;27.25;;;;;;;0.61;95.23;101187.55;1752462;80;21322;-76
2021/11/15 02:05:26;;;;;;;51.68;25.17;;;;;;;0.63;95.30;101190.55;1761355;81;21169;-76
2021/11/15 02:08:31;;;;;;;55.10;26.90;;;;;;;0.65;95.32;101185.92;1761357;81;21299;-76
2021/11/15 02:11:37;;;;;;;54.85;27.87;;;;;;;0.65;95.43;101189.97;1760059;81;21335;-76
2021/11/15 02:14:42;;;;;;;63.05;29.67;;;;;;;0.71;95.79;101199.05;1759815;81;21307;-76
2021/11/15 02:17:49;;;;;;;59.75;29.70;;;;;;;0.78;95.73;101199.53;1740014;81;22628;-77
2021/11/15 02:20:59;;;;;;;43.33;25.00;;;;;;;0.82;95.59;101199.74;1728609;83;21200;-76
2021/11/15 02:24:07;;;;;;;65.20;28.83;;;;;;;0.84;95.33;101207.23;1726371;83;21337;-76
2021/11/15 02:27:12;;;;;;;56.58;28.12;;;;;;;0.75;94.78;101201.95;1727358;83;22571;-76
2021/11/15 02:30:24;;;;;;;58.95;29.02;;;;;;;0.68;94.96;101211.34;1726521;83;21195;-75
2021/11/15 02:33:31;;;;;;;61.70;27.73;;;;;;;0.61;95.06;101199.66;1744202;81;21366;-76
2021/11/15 02:36:42;;;;;;;57.33;27.62;;;;;;;0.60;95.46;101201.97;1745018;82;21306;-76
2021/11/15 02:39:44;;;;;;;53.83;25.12;;;;;;;0.60;95.80;101212.27;1746490;82;21718;-76
2021/11/15 02:42:51;;;;;;;67.82;28.45;;;;;;;0.59;96.18;101213.70;1745146;82;21218;-76
2021/11/15 02:45:56;;;;;;;66.35;30.43;;;;;;;0.60;96.51;101204.66;1746429;82;21188;-77
2021/11/15 02:49:02;;;;;;;56.48;27.80;;;;;;;0.62;96.69;101202.29;1751583;80;21199;-76
2021/11/15 02:52:10;;;;;;;52.95;25.55;;;;;;;0.65;96.71;101206.61;1726405;83;21309;-76
2021/11/15 02:55:15;;;;;;;54.45;26.95;;;;;;;0.65;96.55;101210.64;1724776;83;21736;-77
2021/11/15 02:58:22;;;;;;;57.53;27.35;;;;;;;0.62;96.44;101213.54;1756366;81;21879;-76
2021/11/15 03:01:27;;;;;;;65.47;29.18;;;;;;;0.59;96.58;101217.27;1727191;81;21368;-77
2021/11/15 03:04:33;;;;;;;59.83;29.00;;;;;;;0.52;96.86;101215.91;1750480;82;21319;-77
2021/11/15 03:07:38;;;;;;;61.20;29.40;;;;;;;0.49;97.18;101216.08;1750462;82;21827;-76
2021/11/15 03:10:44;;;;;;;67.82;31.23;;;;;;;0.44;97.37;101215.48;1749500;82;21807;-76
2021/11/15 03:13:53;;;;;;;63.65;29.87;;;;;;;0.40;97.57;101211.23;1752829;81;21228;-76
2021/11/15 03:16:59;;;;;;;64.12;29.92;;;;;;;0.39;97.78;101207.67;1782339;80;21567;-76
2021/11/15 03:20:06;;;;;;;59.55;30.27;;;;;;;0.39;97.86;101198.73;1781780;80;21181;-76
2021/11/15 03:23:23;;;;;;;71.28;32.42;;;;;;;0.36;97.81;101200.25;1782330;80;21295;-76
2021/11/15 03:26:28;;;;;;;63.48;33.00;;;;;;;0.33;97.87;101187.86;1780495;80;21842;-76
2021/11/15 03:29:34;;;;;;;77.08;34.27;;;;;;;0.33;97.97;101193.23;1781826;80;21366;-76
2021/11/15 03:32:40;;;;;;;69.27;33.88;;;;;;;0.37;98.17;101204.66;1780229;80;21326;-76
2021/11/15 03:35:45;;;;;;;61.68;31.82;;;;;;;0.40;98.22;101202.67;1780305;80;21362;-77
2021/11/15 03:38:50;;;;;;;61.88;29.10;;;;;;;0.39;98.12;101204.98;1781822;80;21302;-77
2021/11/15 03:41:55;;;;;;;73.45;33.88;;;;;;;0.33;98.19;101206.70;1782128;80;21296;-76
2021/11/15 03:45:01;;;;;;;73.33;32.63;;;;;;;0.29;98.15;101217.24;1781418;80;21827;-76
2021/11/15 03:48:08;;;;;;;80.45;34.20;;;;;;;0.28;98.34;101210.10;1781909;80;21310;-76
2021/11/15 03:51:12;;;;;;;81.00;36.60;;;;;;;0.29;98.45;101221.76;1751540;81;22256;-75
2021/11/15 03:54:19;;;;;;;81.37;34.08;;;;;;;0.28;98.38;101222.69;1774084;80;21264;-76
2021/11/15 03:57:25;;;;;;;59.83;32.25;;;;;;;0.25;98.43;101231.83;1770414;81;21308;-76
2021/11/15 04:00:34;;;;;;;72.27;35.35;;;;;;;0.24;98.33;101221.55;1771439;81;21348;-77
2021/11/15 04:03:42;;;;;;;60.80;32.95;;;;;;;0.20;98.26;101221.33;1750207;81;21917;-76
2021/11/15 04:06:52;;;;;;;70.08;36.15;;;;;;;0.19;98.30;101227.67;1749348;82;21204;-76
2021/11/15 04:09:58;;;;;;;73.17;36.80;;;;;;;0.17;98.24;101238.98;1807499;79;21842;-76
2021/11/15 04:13:06;;;;;;;77.03;35.88;;;;;;;0.17;98.24;101238.98;1813871;79;21287;-76
2021/11/15 04:16:14;;;;;;;86.90;36.30;;;;;;;0.18;98.28;101233.98;1816200;79;21818;-77
2021/11/15 04:19:23;;;;;;;71.05;34.08;;;;;;;0.14;98.00;101227.06;1782750;80;21200;-76
2021/11/15 04:22:29;;;;;;;60.78;30.62;;;;;;;0.03;97.75;101237.55;1752751;82;21176;-76
2021/11/15 04:25:35;;;;;;;77.42;35.90;;;;;;;-0.05;97.74;101238.00;1751182;82;22423;-76
2021/11/15 04:28:40;;;;;;;71.80;35.00;;;;;;;-0.11;97.82;101234.77;1769441;80;21803;-76
2021/11/15 04:31:45;;;;;;;68.78;35.30;;;;;;;-0.10;98.20;101239.18;1750286;81;21454;-77
2021/11/15 04:34:51;;;;;;;80.42;37.08;;;;;;;-0.02;98.66;101235.12;1734239;82;21384;-76
2021/11/15 04:37:56;;;;;;;80.42;39.67;;;;;;;0.03;98.53;101247.44;1709212;82;21365;-76
2021/11/15 04:41:02;;;;;;;74.22;34.65;;;;;;;0.05;98.49;101253.14;1755819;81;21854;-77
2021/11/15 04:44:07;;;;;;;95.12;39.90;;;;;;;0.08;98.52;101256.98;1752138;82;21260;-76
2021/11/15 04:47:13;;;;;;;79.90;37.35;;;;;;;0.07;98.29;101255.73;1745245;81;21167;-77
2021/11/15 04:50:19;;;;;;;68.65;36.00;;;;;;;0.06;98.24;101260.25;1754318;81;21364;-76
2021/11/15 04:53:25;;;;;;;81.35;38.38;;;;;;;0.05;98.22;101265.25;1782456;80;21766;-76
2021/11/15 04:56:31;;;;;;;82.57;38.50;;;;;;;0.04;98.20;101269.34;1730522;83;21319;-76
2021/11/15 04:59:37;;;;;;;75.52;37.33;;;;;;;0.04;98.19;101271.55;1760681;81;21884;-76
2021/11/15 05:02:42;;;;;;;78.17;38.40;;;;;;;0.05;98.16;101273.32;1777709;80;21581;-76
2021/11/15 05:05:48;;;;;;;79.60;40.73;;;;;;;0.03;97.98;101283.28;1789925;80;21342;-76
2021/11/15 05:08:55;;;;;;;91.57;41.83;;;;;;;-0.01;98.00;101279.88;1790612;80;21179;-77
2021/11/15 05:12:01;;;;;;;82.12;41.37;;;;;;;-0.05;97.97;101282.83;1780248;80;21278;-75
2021/11/15 05:15:06;;;;;;;79.72;41.60;;;;;;;-0.07;98.14;101282.05;1781845;80;21852;-77
2021/11/15 05:18:11;;;;;;;95.80;47.08;;;;;;;-0.04;98.33;101288.14;1756787;80;21323;-76
2021/11/15 05:21:23;;;;;;;84.52;44.58;;;;;;;0.00;98.37;101287.50;1741973;82;21671;-77
2021/11/15 05:24:29;;;;;;;92.08;43.68;;;;;;;-0.01;98.17;101289.77;1741997;82;21893;-75
2021/11/15 05:27:33;;;;;;;88.15;43.35;;;;;;;-0.03;98.10;101291.22;1740405;82;21675;-76
2021/11/15 05:30:39;;;;;;;83.40;42.20;;;;;;;0.02;98.36;101289.62;1737838;82;21182;-76
2021/11/15 05:33:44;;;;;;;79.12;39.83;;;;;;;0.07;98.61;101282.16;1739082;82;21335;-77
2021/11/15 05:36:50;;;;;;;94.52;48.25;;;;;;;0.13;98.86;101293.05;1734322;82;21264;-76
2021/11/15 05:39:56;;;;;;;104.92;52.30;;;;;;;0.20;99.05;101299.36;1735254;82;21812;-77
2021/11/15 05:43:03;;;;;;;103.12;51.37;;;;;;;0.33;99.31;101306.27;1735370;82;21292;-76
2021/11/15 05:46:09;;;;;;;88.55;47.70;;;;;;;0.48;99.43;101299.14;1735255;82;21222;-76
2021/11/15 05:49:15;;;;;;;92.30;47.67;;;;;;;0.63;99.41;101304.98;1709527;82;21254;-76
2021/11/15 05:52:23;;;;;;;102.47;51.55;;;;;;;0.69;99.04;101311.84;1732570;81;21363;-78
2021/11/15 05:55:29;;;;;;;108.42;53.30;;;;;;;0.72;98.86;101315.23;1759344;81;21302;-76
2021/11/15 05:58:34;;;;;;;104.03;49.80;;;;;;;0.78;98.73;101310.44;1764177;81;21290;-76
2021/11/15 06:01:39;;;;;;;93.00;47.23;;;;;;;0.84;98.61;101301.99;1746524;80;21277;-76
2021/11/15 06:04:45;;;;;;;91.87;45.35;;;;;;;0.91;98.61;101303.38;1763855;81;21216;-76
2021/11/15 06:07:51;;;;;;;94.67;47.17;;;;;;;0.98;98.47;101300.70;1756656;81;21334;-77
2021/11/15 06:10:57;;;;;;;107.75;48.28;;;;;;;1.04;98.42;101306.23;1759781;81;21291;-76
2021/11/15 06:14:04;;;;;;;91.10;44.70;;;;;;;1.12;98.44;101313.36;1759079;80;21373;-76
2021/11/15 06:17:11;;;;;;;101.95;45.65;;;;;;;1.23;98.42;101312.25;1765908;79;21273;-78
2021/11/15 06:20:17;;;;;;;105.47;45.38;;;;;;;1.30;98.29;101314.09;1773684;78;21238;-79
2021/11/15 06:23:23;;;;;;;82.00;41.08;;;;;;;1.35;98.24;101328.16;1800268;78;21294;-77
2021/11/15 06:26:29;;;;;;;95.72;43.33;;;;;;;1.39;98.36;101329.22;1804120;78;21186;-77
2021/11/15 06:29:35;;;;;;;100.47;46.02;;;;;;;1.43;98.50;101331.27;1807809;77;21264;-77
2021/11/15 06:32:42;;;;;;;99.60;47.48;;;;;;;1.46;98.59;101332.44;1801050;78;21333;-77
2021/11/15 06:35:48;;;;;;;90.22;44.45;;;;;;;1.51;98.76;101337.06;1801710;78;21482;-77
2021/11/15 06:38:55;;;;;;;89.92;44.63;;;;;;;1.60;98.85;101341.90;1807586;78;21282;-77
2021/11/15 06:42:02;;;;;;;89.28;45.45;;;;;;;1.66;98.80;101350.09;1800686;78;21694;-77
2021/11/15 06:45:08;;;;;;;87.00;42.62;;;;;;;1.72;98.78;101344.31;1794366;78;21266;-77
2021/11/15 06:48:14;;;;;;;79.85;40.33;;;;;;;1.78;98.76;101347.48;1803729;78;21259;-78
2021/11/15 06:51:20;;;;;;;83.00;41.83;;;;;;;1.83;98.65;101352.59;1803397;78;21301;-78
2021/11/15 06:54:25;;;;;;;73.35;39.03;;;;;;;1.86;98.52;101347.50;1800923;78;21252;-76
2021/11/15 06:57:31;;;;;;;90.30;45.05;;;;;;;1.90;98.61;101349.92;1799625;78;21765;-76
2021/11/15 07:00:36;;;;;;;86.37;43.48;;;;;;;1.97;98.73;101353.09;1810966;78;21330;-77
2021/11/15 07:03:43;;;;;;;77.90;37.40;;;;;;;2.05;98.96;101367.84;1806377;78;21318;-77
2021/11/15 07:06:50;;;;;;;85.35;44.42;;;;;;;2.16;99.03;101363.11;1803625;78;21271;-77
2021/11/15 07:09:54;;;;;;;87.35;43.15;;;;;;;2.26;98.79;101364.29;1802635;78;21231;-77
2021/11/15 07:12:52;;;;;;;76.90;37.83;;;;;;;2.33;98.48;101365.24;1804620;77;21680;-76
2021/11/15 07:15:59;;;;;;;68.55;36.00;;;;;;;2.40;98.03;101373.31;1803939;78;21968;-77
2021/11/15 07:19:05;;;;;;;65.40;33.95;;;;;;;2.45;97.55;101368.52;1808492;78;21917;-76
2021/11/15 07:22:16;;;;;;;79.60;36.55;;;;;;;2.51;97.04;101366.28;1803621;78;21346;-75
2021/11/15 07:25:25;;;;;;;84.67;35.28;;;;;;;2.56;96.64;101373.59;1773752;80;21354;-76
2021/11/15 07:28:35;;;;;;;67.35;33.78;;;;;;;2.60;96.31;101374.77;1794852;78;21224;-77
2021/11/15 07:31:42;;;;;;;68.22;35.03;;;;;;;2.61;96.01;101370.59;1763174;80;21785;-77
2021/11/15 07:34:43;;;;;;;55.45;30.77;;;;;;;2.65;96.23;101383.44;1802007;78;21239;-75
2021/11/15 07:37:35;;;;;;;52.43;27.70;;;;;;;2.71;96.08;101389.30;1806937;78;21164;-76
2021/11/15 07:40:41;;;;;;;61.63;30.77;;;;;;;2.75;95.96;101373.76;1781801;79;21291;-77
2021/11/15 07:43:47;;;;;;;55.20;28.75;;;;;;;2.78;95.88;101379.84;1802886;78;21200;-77
2021/11/15 07:46:51;;;;;;;61.40;28.62;;;;;;;2.87;95.71;101394.59;1798775;78;21319;-77
2021/11/15 07:49:57;;;;;;;67.25;32.30;;;;;;;2.96;95.54;101391.73;1798748;78;21318;-77
2021/11/15 07:53:04;;;;;;;61.05;31.42;;;;;;;2.99;95.26;101391.05;1799046;78;21898;-78
2021/11/15 07:56:12;;;;;;;51.55;28.12;;;;;;;3.04;95.16;101391.61;1799572;78;21318;-78
2021/11/15 07:59:25;;;;;;;55.12;28.70;;;;;;;3.12;95.09;101396.52;1783351;78;21446;-78
2021/11/15 08:02:33;;;;;;;60.48;31.10;;;;;;;3.23;95.20;101395.31;1781698;78;21161;-78
2021/11/15 08:05:39;;;;;;;59.48;31.87;;;;;;;3.35;95.07;101402.23;1802209;78;21603;-77
2021/11/15 08:08:47;;;;;;;64.07;33.23;;;;;;;3.43;94.68;101410.67;1809817;78;21420;-78
2021/11/15 08:11:53;;;;;;;52.43;29.30;;;;;;;3.50;94.37;101407.95;1810340;78;21184;-76
2021/11/15 08:15:02;;;;;;;61.60;30.55;;;;;;;3.57;94.02;101410.12;1803249;78;21244;-76
2021/11/15 08:18:07;;;;;;;54.58;29.72;;;;;;;3.64;93.78;101402.47;1806133;78;21302;-79
2021/11/15 08:21:18;;;;;;;55.35;27.35;;;;;;;3.73;93.34;101406.39;1807317;78;21314;-78
2021/11/15 08:24:33;;;;;;;47.30;25.20;;;;;;;3.81;93.14;101410.77;1781073;78;21818;-77
2021/11/15 08:27:39;;;;;;;40.48;21.73;;;;;;;3.88;92.87;101413.92;1787303;78;21321;-77
2021/11/15 08:30:47;;;;;;;39.67;18.67;;;;;;;3.95;91.92;101421.98;1785597;78;21421;-76
2021/11/15 08:33:54;;;;;;;42.17;19.70;;;;;;;4.01;91.50;101418.38;1789000;78;21864;-79
2021/11/15 08:37:00;;;;;;;31.70;17.55;;;;;;;4.11;91.13;101414.55;1801413;78;21771;-78
2021/11/15 08:40:06;;;;;;;46.13;19.17;;;;;;;4.20;90.58;101413.89;1800103;78;21299;-78
2021/11/15 08:43:11;;;;;;;34.23;16.50;;;;;;;4.25;90.20;101400.89;1784432;78;21309;-78
2021/11/15 08:46:19;;;;;;;33.65;16.02;;;;;;;4.35;90.18;101400.61;1797279;78;21422;-78
2021/11/15 08:49:25;;;;;;;36.90;16.95;;;;;;;4.44;89.29;101408.56;1800067;78;21291;-77
2021/11/15 08:52:30;;;;;;;32.63;16.45;;;;;;;4.45;88.23;101406.23;1786692;78;21392;-78
2021/11/15 08:55:36;;;;;;;30.50;16.82;;;;;;;4.42;87.21;101407.80;1799536;78;21283;-77
2021/11/15 08:58:41;;;;;;;32.75;16.70;;;;;;;4.40;87.33;101404.84;1789817;79;21286;-77
2021/11/15 09:01:49;;;;;;;44.73;17.98;;;;;;;4.43;87.82;101397.36;1803545;78;21299;-77
2021/11/15 09:04:55;;;;;;;31.30;16.82;;;;;;;4.52;88.30;101393.98;1797901;78;21288;-77
2021/11/15 09:08:00;;;;;;;41.45;17.55;;;;;;;4.58;86.62;101394.03;1805275;78;21386;-77
2021/11/15 09:11:05;;;;;;;30.65;17.52;;;;;;;4.58;86.10;101404.38;1797528;78;21266;-77
2021/11/15 09:14:10;;;;;;;29.10;15.40;;;;;;;4.61;85.32;101405.98;1799141;78;21145;-77
2021/11/15 09:17:16;;;;;;;37.38;16.70;;;;;;;4.58;84.99;101407.08;1797010;78;21314;-76
2021/11/15 09:20:20;;;;;;;25.20;14.70;;;;;;;4.57;84.67;101408.06;1802261;78;21160;-77
2021/11/15 09:23:26;;;;;;;33.83;16.62;;;;;;;4.56;84.54;101405.45;1796374;78;21294;-76
2021/11/15 09:26:31;;;;;;;27.27;15.72;;;;;;;4.57;84.92;101408.06;1784585;78;21338;-77
2021/11/15 09:29:36;;;;;;;27.65;15.65;;;;;;;4.65;85.25;101410.20;1784193;78;22457;-77
2021/11/15 09:32:38;;;;;;;34.55;17.65;;;;;;;4.74;84.58;101406.82;1791229;78;21466;-77
2021/11/15 09:35:55;;;;;;;27.82;15.93;;;;;;;4.78;84.08;101418.31;1782125;78;21302;-76
2021/11/15 09:38:51;;;;;;;26.30;14.98;;;;;;;4.81;83.69;101409.48;1793795;78;21654;-75
2021/11/15 09:41:57;;;;;;;27.35;14.60;;;;;;;4.86;83.63;101410.00;1797108;78;21177;-75
2021/11/15 09:45:13;;;;;;;26.90;15.05;;;;;;;5.03;83.61;101415.52;1791837;78;21692;-77
2021/11/15 09:48:19;;;;;;;29.95;15.05;;;;;;;5.15;81.58;101411.53;1790907;78;21193;-77
2021/11/15 09:51:25;;;;;;;26.33;14.20;;;;;;;5.20;82.08;101418.84;1782116;78;21906;-77
2021/11/15 09:54:31;;;;;;;22.50;13.03;;;;;;;5.17;79.75;101428.05;1789555;78;21938;-77
2021/11/15 09:57:41;;;;;;;23.60;13.03;;;;;;;5.10;79.13;101420.88;1787294;78;21293;-77
2021/11/15 10:00:47;;;;;;;24.17;13.00;;;;;;;5.02;77.73;101419.70;1781845;78;21366;-78
2021/11/15 10:03:53;;;;;;;23.67;13.70;;;;;;;4.94;78.47;101405.84;1785343;79;22061;-77
2021/11/15 10:06:59;;;;;;;25.23;12.95;;;;;;;4.97;78.58;101423.25;1774497;79;21428;-78
2021/11/15 10:10:05;;;;;;;26.10;13.85;;;;;;;5.03;78.13;101413.30;1785141;79;21291;-77
2021/11/15 10:13:40;;;;;;;26.87;13.78;;;;;;;5.06;78.71;101411.23;1788599;79;21290;-77
2021/11/15 10:16:47;;;;;;;20.57;12.88;;;;;;;5.14;78.71;101401.18;1783661;79;21905;-77
2021/11/15 10:19:53;;;;;;;27.80;14.05;;;;;;;5.25;77.75;101405.79;1776064;78;21161;-79
2021/11/15 10:22:59;;;;;;;22.32;12.78;;;;;;;5.31;77.10;101400.75;1787431;79;21862;-79
2021/11/15 10:26:04;;;;;;;24.95;12.35;;;;;;;5.33;75.99;101417.80;1791541;79;21798;-78
2021/11/15 10:29:21;;;;;;;23.18;13.38;;;;;;;5.30;76.03;101409.88;1792372;78;21208;-78
2021/11/15 10:32:32;;;;;;;22.93;12.60;;;;;;;5.32;75.79;101414.72;1798892;79;21302;-78
2021/11/15 10:35:48;;;;;;;24.05;12.05;;;;;;;5.32;75.41;101420.14;1789893;79;21297;-78
2021/11/15 10:38:54;;;;;;;25.70;11.95;;;;;;;5.30;75.33;101413.95;1798086;78;21271;-78
2021/11/15 10:42:16;;;;;;;23.87;12.93;;;;;;;5.28;75.37;101409.14;1790486;79;21888;-77
2021/11/15 10:45:29;;;;;;;24.55;12.82;;;;;;;5.30;75.27;101400.39;1795077;79;21353;-78
2021/11/15 10:48:35;;;;;;;22.37;12.65;;;;;;;5.37;75.02;101413.02;1795940;79;21168;-79
2021/11/15 10:51:57;;;;;;;33.73;14.38;;;;;;;5.37;75.04;101408.95;1794738;79;21273;-77
2021/11/15 10:55:07;;;;;;;23.60;12.98;;;;;;;5.40;74.68;101418.19;1788562;78;21266;-78
2021/11/15 10:58:19;;;;;;;;;;;;;;;5.42;73.45;101423.03;1793893;78;21232;-78
2021/11/15 11:01:27;;;;;;;22.80;13.60;;;;;;;5.39;73.10;101420.05;1796415;79;20345;-78
2021/11/15 11:04:34;;;;;;;28.35;12.82;;;;;;;5.38;73.26;101425.10;1794672;79;21216;-78
2021/11/15 11:07:48;;;;;;;23.05;11.90;;;;;;;5.39;73.50;101417.82;1799059;78;21326;-78
2021/11/15 11:11:13;;;;;;;25.05;14.23;;;;;;;5.43;73.22;101427.47;1791254;79;21311;-78
2021/11/15 11:14:37;;;;;;;22.30;13.18;;;;;;;5.53;73.00;101419.00;1842033;76;22171;-77
2021/11/15 11:18:25;;;;;;;24.65;12.70;;;;;;;5.56;72.86;101435.06;1801464;77;21310;-76
2021/11/15 11:28:06;;;;;;;32.30;14.98;;;;;;;5.64;71.44;101452.95;1673786;84;21212;-77
2021/11/15 11:31:15;;;;;;;27.50;17.00;;;;;;;5.63;71.06;101445.80;1736004;80;21219;-79
2021/11/15 11:34:19;;;;;;;25.88;16.15;;;;;;;5.61;71.48;101442.36;1785353;78;21299;-76
2021/11/15 11:37:27;;;;;;;28.17;14.55;;;;;;;5.63;71.45;101449.02;1789719;78;21341;-76
2021/11/15 11:40:32;;;;;;;28.12;14.20;;;;;;;5.62;72.42;101455.44;1755078;80;21319;-77
2021/11/15 11:43:38;;;;;;;28.38;15.38;;;;;;;5.60;72.55;101457.41;1752816;80;21380;-77
2021/11/15 11:46:44;;;;;;;29.65;14.98;;;;;;;5.59;72.62;101460.59;1771999;79;21455;-76
2021/11/15 11:49:51;;;;;;;24.45;15.10;;;;;;;5.61;72.60;101463.21;1775779;78;21253;-76
2021/11/15 11:53:18;;;;;;;26.73;15.25;;;;;;;5.60;72.82;101466.42;1776853;78;21322;-76
2021/11/15 11:56:26;;;;;;;21.87;13.68;;;;;;;5.60;73.50;101457.41;1778328;78;21361;-77
2021/11/15 11:59:32;;;;;;;27.67;14.15;;;;;;;5.62;73.49;101467.65;1755896;80;21301;-77
2021/11/15 12:02:38;;;;;;;29.52;15.38;;;;;;;5.61;72.86;101465.43;1765880;80;21325;-78
2021/11/15 12:05:43;;;;;;;23.12;14.13;;;;;;;5.61;72.91;101464.07;1765973;80;22546;-76
2021/11/15 12:09:07;;;;;;;23.22;12.80;;;;;;;5.63;72.59;101457.16;1763350;80;21313;-77
2021/11/15 12:12:13;;;;;;;21.30;12.33;;;;;;;5.65;72.16;101462.00;1767342;80;21707;-77
2021/11/15 12:15:45;;;;;;;20.23;13.98;;;;;;;5.63;71.93;101470.73;1744675;80;21745;-77
2021/11/15 12:19:06;;;;;;;29.80;16.00;;;;;;;5.66;71.98;101469.64;1741374;80;21738;-77
2021/11/15 12:22:16;;;;;;;25.88;15.45;;;;;;;5.68;71.66;101471.25;1746532;80;21455;-77
2021/11/15 12:25:25;;;;;;;24.27;13.58;;;;;;;5.71;71.66;101477.81;1735157;81;21212;-78
2021/11/15 12:28:39;;;;;;;23.70;12.95;;;;;;;5.72;70.88;101472.75;1742036;81;21344;-78
2021/11/15 12:31:58;;;;;;;28.35;14.47;;;;;;;5.72;71.20;101471.89;1726460;80;21204;-77
2021/11/15 12:35:06;;;;;;;23.80;14.25;;;;;;;5.73;70.62;101488.54;1738463;80;21295;-77
2021/11/15 12:38:12;;;;;;;29.63;14.58;;;;;;;5.71;70.11;101492.74;1734222;80;21916;-78
2021/11/15 12:41:31;;;;;;;22.25;12.10;;;;;;;5.64;70.04;101503.67;1729530;80;21315;-78
2021/11/15 12:44:44;;;;;;;26.30;13.40;;;;;;;5.61;70.23;101484.43;1738427;80;21573;-75
2021/11/15 12:47:54;;;;;;;31.45;14.55;;;;;;;5.57;70.36;101503.77;1738969;80;21289;-76
2021/11/15 12:50:59;;;;;;;26.85;15.15;;;;;;;5.55;70.27;101500.29;1747048;80;21314;-76
2021/11/15 12:54:04;;;;;;;40.70;16.77;;;;;;;5.51;70.33;101510.53;1735264;80;21322;-75
2021/11/15 12:57:15;;;;;;;26.50;14.83;;;;;;;5.43;70.67;101506.66;1733608;80;21839;-76
2021/11/15 13:00:30;;;;;;;33.92;16.73;;;;;;;5.38;70.77;101504.28;1732308;81;21340;-76
2021/11/15 13:03:36;;;;;;;28.00;17.02;;;;;;;5.34;71.40;101520.41;1724363;81;21236;-76
2021/11/15 13:06:41;;;;;;;37.10;17.20;;;;;;;5.33;71.50;101529.53;1746624;79;21342;-76
2021/11/15 13:09:53;;;;;;;32.33;18.10;;;;;;;5.30;72.03;101536.53;1748371;79;21237;-75
2021/11/15 13:13:05;;;;;;;27.95;16.12;;;;;;;5.26;72.15;101535.88;1745552;79;21189;-76
2021/11/15 13:16:11;;;;;;;35.98;16.35;;;;;;;5.22;72.46;101547.06;1766230;79;21303;-77
2021/11/15 13:19:17;;;;;;;37.00;17.48;;;;;;;5.15;72.32;101562.93;1806052;78;21720;-76
2021/11/15 13:22:22;;;;;;;30.37;17.37;;;;;;;5.09;72.63;101559.31;1800808;78;21169;-77
2021/11/15 13:25:28;;;;;;;33.42;18.92;;;;;;;5.03;73.05;101563.80;1798553;78;21268;-77
2021/11/15 13:28:44;;;;;;;32.23;18.70;;;;;;;4.96;73.55;101565.23;1766907;80;21185;-76
2021/11/15 13:31:50;;;;;;;33.75;20.08;;;;;;;4.94;73.97;101584.80;1801102;77;21631;-77
2021/11/15 13:34:57;;;;;;;36.53;21.12;;;;;;;4.91;74.47;101576.90;1798876;79;21323;-76
2021/11/15 13:38:06;;;;;;;45.80;24.35;;;;;;;4.87;75.05;101585.23;1800606;79;21332;-77
2021/11/15 13:41:12;;;;;;;49.63;26.68;;;;;;;4.81;75.52;101595.66;1801543;79;21252;-76
2021/11/15 13:44:18;;;;;;;47.58;25.50;;;;;;;4.75;75.96;101592.00;1762118;81;21479;-77
2021/11/15 13:47:25;;;;;;;43.78;26.95;;;;;;;4.71;76.21;101591.87;1807308;78;21322;-77
2021/11/15 13:50:30;;;;;;;58.05;28.07;;;;;;;4.66;76.44;101603.03;1823407;78;21854;-76
2021/11/15 13:53:35;;;;;;;39.83;26.15;;;;;;;4.59;76.57;101600.35;1798278;79;21240;-77
2021/11/15 13:56:41;;;;;;;41.80;26.00;;;;;;;4.51;76.77;101609.00;1761333;81;21327;-76
2021/11/15 13:59:47;;;;;;;46.68;28.45;;;;;;;4.42;77.10;101619.60;1722893;82;21316;-77
2021/11/15 14:02:54;;;;;;;46.00;30.27;;;;;;;4.33;77.41;101612.50;1797961;79;21920;-77
2021/11/15 14:06:01;;;;;;;40.17;26.65;;;;;;;4.30;77.76;101616.77;1798921;78;21318;-76
2021/11/15 14:09:08;;;;;;;47.90;29.32;;;;;;;4.30;78.08;101622.19;1814031;78;21200;-76
2021/11/15 14:12:14;;;;;;;41.42;27.77;;;;;;;4.33;78.32;101625.19;1798741;78;21181;-75
2021/11/15 14:15:19;;;;;;;44.35;27.35;;;;;;;4.34;78.42;101630.48;1799119;79;21198;-76
2021/11/15 14:18:24;;;;;;;30.75;22.35;;;;;;;4.38;78.41;101635.71;1819735;78;21287;-75
2021/11/15 14:21:30;;;;;;;38.42;22.00;;;;;;;4.43;78.40;101630.84;1834980;78;21314;-76
2021/11/15 14:24:34;;;;;;;28.25;18.55;;;;;;;4.47;78.37;101630.53;1808805;79;21295;-76
2021/11/15 14:27:40;;;;;;;24.25;15.98;;;;;;;4.49;78.04;101634.48;1809156;79;21323;-76